Terminal Aerodrome Forecast
Issued by NWS Memphis, TN

Current Version | Previous Version | Text Only | Print | Product List | Glossary On
Versions: 1 2 3 4 5 6 7 8 9 10 11 12 13 14 15 16 17 18 19 20 21 22 23 24 25 26 27 28 29 30 31 32
000
FTUS44 KMEG 300859 AAA
TAFMEM
TAF AMD
KMEM 300859Z 3009/3106 01004KT P6SM OVC070
     FM301000 02005KT P6SM SKC
      TEMPO 3010/3013 6SM BR
     FM301900 05003KT P6SM SKC
     FM310100 14003KT P6SM SCT150=

USA.gov is the U.S. government's official web portal to all federal, state and local government web resources and services.